sensor_id;sensor_type;location;lat;lon;timestamp;P1;durP1;ratioP1;P2;durP2;ratioP2
76131;SDS011;64877;50.994;13.650;2023-03-11T00:02:12;0.68;;;0.40;;
76131;SDS011;64877;50.994;13.650;2023-03-11T00:04:38;1.20;;;0.60;;
76131;SDS011;64877;50.994;13.650;2023-03-11T00:07:07;0.73;;;0.30;;
76131;SDS011;64877;50.994;13.650;2023-03-11T00:09:33;0.90;;;0.50;;
76131;SDS011;64877;50.994;13.650;2023-03-11T00:11:59;0.77;;;0.30;;
76131;SDS011;64877;50.994;13.650;2023-03-11T00:14:24;0.65;;;0.32;;
76131;SDS011;64877;50.994;13.650;2023-03-11T00:16:50;0.63;;;0.30;;
76131;SDS011;64877;50.994;13.650;2023-03-11T00:19:15;0.77;;;0.50;;
76131;SDS011;64877;50.994;13.650;2023-03-11T00:21:41;0.70;;;0.40;;
76131;SDS011;64877;50.994;13.650;2023-03-11T00:24:06;0.70;;;0.40;;
76131;SDS011;64877;50.994;13.650;2023-03-11T00:26:31;1.17;;;0.45;;
76131;SDS011;64877;50.994;13.650;2023-03-11T00:28:57;0.70;;;0.30;;
76131;SDS011;64877;50.994;13.650;2023-03-11T00:31:22;0.95;;;0.47;;
76131;SDS011;64877;50.994;13.650;2023-03-11T00:33:50;1.70;;;0.50;;
76131;SDS011;64877;50.994;13.650;2023-03-11T00:36:20;1.00;;;0.50;;
76131;SDS011;64877;50.994;13.650;2023-03-11T00:38:48;0.77;;;0.43;;
76131;SDS011;64877;50.994;13.650;2023-03-11T00:41:14;1.20;;;0.50;;
76131;SDS011;64877;50.994;13.650;2023-03-11T00:43:39;1.10;;;0.60;;
76131;SDS011;64877;50.994;13.650;2023-03-11T00:46:05;1.70;;;0.63;;
76131;SDS011;64877;50.994;13.650;2023-03-11T00:48:30;1.63;;;0.80;;
76131;SDS011;64877;50.994;13.650;2023-03-11T00:50:56;0.63;;;0.45;;
76131;SDS011;64877;50.994;13.650;2023-03-11T00:53:21;1.45;;;0.77;;
76131;SDS011;64877;50.994;13.650;2023-03-11T00:55:46;1.35;;;0.85;;
76131;SDS011;64877;50.994;13.650;2023-03-11T00:58:12;1.88;;;0.98;;
76131;SDS011;64877;50.994;13.650;2023-03-11T01:00:37;1.58;;;0.90;;
76131;SDS011;64877;50.994;13.650;2023-03-11T01:03:03;1.88;;;1.00;;
76131;SDS011;64877;50.994;13.650;2023-03-11T01:05:30;1.67;;;0.90;;
76131;SDS011;64877;50.994;13.650;2023-03-11T01:07:57;2.92;;;0.93;;
76131;SDS011;64877;50.994;13.650;2023-03-11T01:10:23;1.70;;;0.73;;
76131;SDS011;64877;50.994;13.650;2023-03-11T01:12:49;2.13;;;1.10;;
76131;SDS011;64877;50.994;13.650;2023-03-11T01:15:19;1.63;;;0.88;;
76131;SDS011;64877;50.994;13.650;2023-03-11T01:17:53;1.17;;;0.73;;
76131;SDS011;64877;50.994;13.650;2023-03-11T01:20:19;1.80;;;0.75;;
76131;SDS011;64877;50.994;13.650;2023-03-11T01:22:44;1.73;;;0.90;;
76131;SDS011;64877;50.994;13.650;2023-03-11T01:25:13;2.47;;;1.10;;
76131;SDS011;64877;50.994;13.650;2023-03-11T01:27:41;1.38;;;0.88;;
76131;SDS011;64877;50.994;13.650;2023-03-11T01:30:06;2.20;;;1.05;;
76131;SDS011;64877;50.994;13.650;2023-03-11T01:32:33;1.63;;;1.00;;
76131;SDS011;64877;50.994;13.650;2023-03-11T01:34:58;1.52;;;0.88;;
76131;SDS011;64877;50.994;13.650;2023-03-11T01:37:24;1.48;;;0.73;;
76131;SDS011;64877;50.994;13.650;2023-03-11T01:39:49;1.70;;;0.90;;
76131;SDS011;64877;50.994;13.650;2023-03-11T01:42:15;1.73;;;0.93;;
76131;SDS011;64877;50.994;13.650;2023-03-11T01:44:40;1.58;;;0.93;;
76131;SDS011;64877;50.994;13.650;2023-03-11T01:49:54;4.53;;;1.05;;
76131;SDS011;64877;50.994;13.650;2023-03-11T01:52:19;2.60;;;0.90;;
76131;SDS011;64877;50.994;13.650;2023-03-11T01:54:45;1.35;;;0.63;;
76131;SDS011;64877;50.994;13.650;2023-03-11T01:57:11;1.48;;;0.70;;
76131;SDS011;64877;50.994;13.650;2023-03-11T01:59:48;1.10;;;0.70;;
76131;SDS011;64877;50.994;13.650;2023-03-11T02:02:17;1.63;;;0.90;;
76131;SDS011;64877;50.994;13.650;2023-03-11T02:04:44;1.40;;;0.80;;
76131;SDS011;64877;50.994;13.650;2023-03-11T02:07:10;1.15;;;0.77;;
76131;SDS011;64877;50.994;13.650;2023-03-11T02:09:36;1.65;;;1.00;;
76131;SDS011;64877;50.994;13.650;2023-03-11T02:12:03;1.30;;;0.85;;
76131;SDS011;64877;50.994;13.650;2023-03-11T02:14:30;1.67;;;0.90;;
76131;SDS011;64877;50.994;13.650;2023-03-11T02:16:56;1.95;;;1.10;;
76131;SDS011;64877;50.994;13.650;2023-03-11T02:22:04;2.10;;;1.00;;
76131;SDS011;64877;50.994;13.650;2023-03-11T02:24:34;2.05;;;1.15;;
76131;SDS011;64877;50.994;13.650;2023-03-11T02:27:05;3.55;;;1.20;;
76131;SDS011;64877;50.994;13.650;2023-03-11T02:29:33;1.92;;;1.00;;
76131;SDS011;64877;50.994;13.650;2023-03-11T02:32:00;1.60;;;1.00;;
76131;SDS011;64877;50.994;13.650;2023-03-11T02:34:32;1.75;;;0.95;;
76131;SDS011;64877;50.994;13.650;2023-03-11T02:37:00;2.15;;;1.10;;
76131;SDS011;64877;50.994;13.650;2023-03-11T02:39:28;2.35;;;1.20;;
76131;SDS011;64877;50.994;13.650;2023-03-11T02:41:59;2.70;;;0.95;;
76131;SDS011;64877;50.994;13.650;2023-03-11T02:44:29;1.50;;;0.88;;
76131;SDS011;64877;50.994;13.650;2023-03-11T02:46:55;2.55;;;1.02;;
76131;SDS011;64877;50.994;13.650;2023-03-11T02:49:20;1.15;;;0.80;;
76131;SDS011;64877;50.994;13.650;2023-03-11T02:51:46;1.20;;;0.75;;
76131;SDS011;64877;50.994;13.650;2023-03-11T02:54:12;1.58;;;0.90;;
76131;SDS011;64877;50.994;13.650;2023-03-11T02:56:37;1.83;;;0.95;;
76131;SDS011;64877;50.994;13.650;2023-03-11T02:59:02;1.80;;;0.93;;
76131;SDS011;64877;50.994;13.650;2023-03-11T03:01:28;1.75;;;1.10;;
76131;SDS011;64877;50.994;13.650;2023-03-11T03:03:54;1.27;;;0.85;;
76131;SDS011;64877;50.994;13.650;2023-03-11T03:06:19;1.90;;;0.90;;
76131;SDS011;64877;50.994;13.650;2023-03-11T03:08:45;2.40;;;0.93;;
76131;SDS011;64877;50.994;13.650;2023-03-11T03:11:10;1.40;;;0.85;;
76131;SDS011;64877;50.994;13.650;2023-03-11T03:13:36;2.15;;;1.10;;
76131;SDS011;64877;50.994;13.650;2023-03-11T03:16:01;2.78;;;1.17;;
76131;SDS011;64877;50.994;13.650;2023-03-11T03:18:27;2.22;;;1.00;;
76131;SDS011;64877;50.994;13.650;2023-03-11T03:20:52;2.00;;;1.00;;
76131;SDS011;64877;50.994;13.650;2023-03-11T03:23:18;1.77;;;1.15;;
76131;SDS011;64877;50.994;13.650;2023-03-11T03:25:44;5.32;;;1.60;;
76131;SDS011;64877;50.994;13.650;2023-03-11T03:28:10;2.15;;;1.00;;
76131;SDS011;64877;50.994;13.650;2023-03-11T03:30:36;2.78;;;1.20;;
76131;SDS011;64877;50.994;13.650;2023-03-11T03:33:02;2.22;;;1.20;;
76131;SDS011;64877;50.994;13.650;2023-03-11T03:35:28;2.22;;;1.60;;
76131;SDS011;64877;50.994;13.650;2023-03-11T03:37:54;3.50;;;1.70;;
76131;SDS011;64877;50.994;13.650;2023-03-11T03:40:19;5.63;;;2.17;;
76131;SDS011;64877;50.994;13.650;2023-03-11T03:42:45;3.08;;;2.15;;
76131;SDS011;64877;50.994;13.650;2023-03-11T03:45:11;4.85;;;2.15;;
76131;SDS011;64877;50.994;13.650;2023-03-11T03:47:36;3.72;;;2.42;;
76131;SDS011;64877;50.994;13.650;2023-03-11T03:50:03;3.45;;;2.45;;
76131;SDS011;64877;50.994;13.650;2023-03-11T03:52:29;3.88;;;2.60;;
76131;SDS011;64877;50.994;13.650;2023-03-11T03:54:54;3.88;;;2.42;;
76131;SDS011;64877;50.994;13.650;2023-03-11T03:57:19;3.95;;;2.40;;
76131;SDS011;64877;50.994;13.650;2023-03-11T03:59:45;3.45;;;2.20;;
76131;SDS011;64877;50.994;13.650;2023-03-11T04:02:10;4.50;;;2.85;;
76131;SDS011;64877;50.994;13.650;2023-03-11T04:04:35;5.13;;;2.88;;
76131;SDS011;64877;50.994;13.650;2023-03-11T04:07:02;3.63;;;2.30;;
76131;SDS011;64877;50.994;13.650;2023-03-11T04:09:29;4.72;;;2.92;;
76131;SDS011;64877;50.994;13.650;2023-03-11T04:11:55;5.85;;;3.20;;
76131;SDS011;64877;50.994;13.650;2023-03-11T04:14:21;4.55;;;3.00;;
76131;SDS011;64877;50.994;13.650;2023-03-11T04:16:46;5.82;;;3.10;;
76131;SDS011;64877;50.994;13.650;2023-03-11T04:19:12;4.70;;;3.35;;
76131;SDS011;64877;50.994;13.650;2023-03-11T04:21:37;5.18;;;3.00;;
76131;SDS011;64877;50.994;13.650;2023-03-11T04:24:02;4.30;;;3.05;;
76131;SDS011;64877;50.994;13.650;2023-03-11T04:26:28;5.82;;;3.40;;
76131;SDS011;64877;50.994;13.650;2023-03-11T04:28:54;5.20;;;3.30;;
76131;SDS011;64877;50.994;13.650;2023-03-11T04:31:19;5.05;;;3.00;;
76131;SDS011;64877;50.994;13.650;2023-03-11T04:33:44;5.70;;;3.70;;
76131;SDS011;64877;50.994;13.650;2023-03-11T04:36:10;9.38;;;3.38;;
76131;SDS011;64877;50.994;13.650;2023-03-11T04:38:36;4.57;;;3.17;;
76131;SDS011;64877;50.994;13.650;2023-03-11T04:41:02;5.35;;;3.60;;
76131;SDS011;64877;50.994;13.650;2023-03-11T04:43:29;6.22;;;3.92;;
76131;SDS011;64877;50.994;13.650;2023-03-11T04:45:55;5.70;;;3.83;;
76131;SDS011;64877;50.994;13.650;2023-03-11T04:48:20;6.18;;;4.40;;
76131;SDS011;64877;50.994;13.650;2023-03-11T04:50:45;5.85;;;4.13;;
76131;SDS011;64877;50.994;13.650;2023-03-11T04:53:11;6.10;;;4.40;;
76131;SDS011;64877;50.994;13.650;2023-03-11T04:55:36;8.35;;;3.78;;
76131;SDS011;64877;50.994;13.650;2023-03-11T04:58:03;5.72;;;4.10;;
76131;SDS011;64877;50.994;13.650;2023-03-11T05:00:29;5.82;;;3.95;;
76131;SDS011;64877;50.994;13.650;2023-03-11T05:02:54;5.47;;;4.07;;
76131;SDS011;64877;50.994;13.650;2023-03-11T05:05:19;7.85;;;4.68;;
76131;SDS011;64877;50.994;13.650;2023-03-11T05:07:45;8.00;;;4.10;;
76131;SDS011;64877;50.994;13.650;2023-03-11T05:10:11;7.95;;;4.60;;
76131;SDS011;64877;50.994;13.650;2023-03-11T05:12:37;5.80;;;3.95;;
76131;SDS011;64877;50.994;13.650;2023-03-11T05:15:02;5.82;;;4.10;;
76131;SDS011;64877;50.994;13.650;2023-03-11T05:17:28;6.90;;;4.22;;
76131;SDS011;64877;50.994;13.650;2023-03-11T05:19:53;4.93;;;3.25;;
76131;SDS011;64877;50.994;13.650;2023-03-11T05:22:19;6.18;;;3.63;;
76131;SDS011;64877;50.994;13.650;2023-03-11T05:24:45;6.43;;;3.95;;
76131;SDS011;64877;50.994;13.650;2023-03-11T05:27:11;5.15;;;3.72;;
76131;SDS011;64877;50.994;13.650;2023-03-11T05:29:37;5.82;;;4.00;;
76131;SDS011;64877;50.994;13.650;2023-03-11T05:32:03;6.57;;;4.20;;
76131;SDS011;64877;50.994;13.650;2023-03-11T05:34:29;5.93;;;3.72;;
76131;SDS011;64877;50.994;13.650;2023-03-11T05:36:54;7.18;;;4.30;;
76131;SDS011;64877;50.994;13.650;2023-03-11T05:39:20;7.10;;;4.65;;
76131;SDS011;64877;50.994;13.650;2023-03-11T05:41:45;7.05;;;4.43;;
76131;SDS011;64877;50.994;13.650;2023-03-11T05:44:11;7.45;;;4.15;;
76131;SDS011;64877;50.994;13.650;2023-03-11T05:46:36;6.88;;;3.83;;
76131;SDS011;64877;50.994;13.650;2023-03-11T05:49:01;6.07;;;4.40;;
76131;SDS011;64877;50.994;13.650;2023-03-11T05:51:27;8.23;;;4.43;;
76131;SDS011;64877;50.994;13.650;2023-03-11T05:53:53;7.72;;;4.72;;
76131;SDS011;64877;50.994;13.650;2023-03-11T05:56:19;7.50;;;4.97;;
76131;SDS011;64877;50.994;13.650;2023-03-11T05:58:46;6.70;;;4.63;;
76131;SDS011;64877;50.994;13.650;2023-03-11T06:01:13;8.05;;;4.72;;
76131;SDS011;64877;50.994;13.650;2023-03-11T06:03:40;8.50;;;5.13;;
76131;SDS011;64877;50.994;13.650;2023-03-11T06:06:06;7.53;;;5.32;;
76131;SDS011;64877;50.994;13.650;2023-03-11T06:08:33;8.43;;;5.75;;
76131;SDS011;64877;50.994;13.650;2023-03-11T06:11:00;7.45;;;5.15;;
76131;SDS011;64877;50.994;13.650;2023-03-11T06:13:29;10.45;;;5.97;;
76131;SDS011;64877;50.994;13.650;2023-03-11T06:15:55;10.68;;;6.15;;
76131;SDS011;64877;50.994;13.650;2023-03-11T06:18:20;10.55;;;5.53;;
76131;SDS011;64877;50.994;13.650;2023-03-11T06:20:46;10.73;;;6.40;;
76131;SDS011;64877;50.994;13.650;2023-03-11T06:23:11;9.45;;;5.45;;
76131;SDS011;64877;50.994;13.650;2023-03-11T06:25:37;11.57;;;5.90;;
76131;SDS011;64877;50.994;13.650;2023-03-11T06:28:02;6.53;;;4.80;;
76131;SDS011;64877;50.994;13.650;2023-03-11T06:30:28;10.40;;;4.93;;
76131;SDS011;64877;50.994;13.650;2023-03-11T06:32:53;10.23;;;4.85;;
76131;SDS011;64877;50.994;13.650;2023-03-11T06:35:19;8.50;;;5.90;;
76131;SDS011;64877;50.994;13.650;2023-03-11T06:37:44;8.65;;;5.00;;
76131;SDS011;64877;50.994;13.650;2023-03-11T06:40:10;8.60;;;5.53;;
76131;SDS011;64877;50.994;13.650;2023-03-11T06:42:36;9.48;;;5.57;;
76131;SDS011;64877;50.994;13.650;2023-03-11T06:45:01;9.75;;;5.60;;
76131;SDS011;64877;50.994;13.650;2023-03-11T06:47:27;8.20;;;5.13;;
76131;SDS011;64877;50.994;13.650;2023-03-11T06:49:52;8.43;;;5.68;;
76131;SDS011;64877;50.994;13.650;2023-03-11T06:52:18;11.18;;;6.03;;
76131;SDS011;64877;50.994;13.650;2023-03-11T06:54:43;8.35;;;5.15;;
76131;SDS011;64877;50.994;13.650;2023-03-11T06:57:09;8.27;;;5.75;;
76131;SDS011;64877;50.994;13.650;2023-03-11T06:59:35;9.85;;;5.70;;
76131;SDS011;64877;50.994;13.650;2023-03-11T07:02:01;9.52;;;6.30;;
76131;SDS011;64877;50.994;13.650;2023-03-11T07:04:28;8.25;;;6.13;;
76131;SDS011;64877;50.994;13.650;2023-03-11T07:06:55;7.65;;;5.38;;
76131;SDS011;64877;50.994;13.650;2023-03-11T07:09:20;8.60;;;5.38;;
76131;SDS011;64877;50.994;13.650;2023-03-11T07:11:47;9.98;;;6.43;;
76131;SDS011;64877;50.994;13.650;2023-03-11T07:14:13;11.20;;;6.78;;
76131;SDS011;64877;50.994;13.650;2023-03-11T07:16:38;8.85;;;6.13;;
76131;SDS011;64877;50.994;13.650;2023-03-11T07:19:04;8.70;;;6.05;;
76131;SDS011;64877;50.994;13.650;2023-03-11T07:21:30;8.82;;;5.90;;
76131;SDS011;64877;50.994;13.650;2023-03-11T07:23:57;11.10;;;6.30;;
76131;SDS011;64877;50.994;13.650;2023-03-11T07:26:24;12.88;;;6.50;;
76131;SDS011;64877;50.994;13.650;2023-03-11T07:28:50;12.07;;;6.25;;
76131;SDS011;64877;50.994;13.650;2023-03-11T07:31:19;10.88;;;5.80;;
76131;SDS011;64877;50.994;13.650;2023-03-11T07:33:47;16.77;;;6.45;;
76131;SDS011;64877;50.994;13.650;2023-03-11T07:36:17;12.40;;;6.03;;
76131;SDS011;64877;50.994;13.650;2023-03-11T07:38:45;11.05;;;6.07;;
76131;SDS011;64877;50.994;13.650;2023-03-11T07:41:12;9.60;;;6.43;;
76131;SDS011;64877;50.994;13.650;2023-03-11T07:43:39;11.27;;;6.70;;
76131;SDS011;64877;50.994;13.650;2023-03-11T07:46:10;12.07;;;6.70;;
76131;SDS011;64877;50.994;13.650;2023-03-11T07:48:38;8.23;;;5.82;;
76131;SDS011;64877;50.994;13.650;2023-03-11T07:51:09;14.77;;;7.32;;
76131;SDS011;64877;50.994;13.650;2023-03-11T07:53:35;11.77;;;7.38;;
76131;SDS011;64877;50.994;13.650;2023-03-11T07:56:01;11.48;;;7.32;;
76131;SDS011;64877;50.994;13.650;2023-03-11T07:58:27;12.63;;;7.35;;
76131;SDS011;64877;50.994;13.650;2023-03-11T08:00:53;16.17;;;9.18;;
76131;SDS011;64877;50.994;13.650;2023-03-11T08:03:21;19.05;;;8.38;;
76131;SDS011;64877;50.994;13.650;2023-03-11T08:05:47;11.90;;;6.95;;
76131;SDS011;64877;50.994;13.650;2023-03-11T08:08:13;13.30;;;5.88;;
76131;SDS011;64877;50.994;13.650;2023-03-11T08:10:38;10.43;;;5.82;;
76131;SDS011;64877;50.994;13.650;2023-03-11T08:13:04;8.77;;;5.70;;
76131;SDS011;64877;50.994;13.650;2023-03-11T08:15:29;9.55;;;6.30;;
76131;SDS011;64877;50.994;13.650;2023-03-11T08:17:55;9.48;;;6.38;;
76131;SDS011;64877;50.994;13.650;2023-03-11T08:20:20;10.18;;;6.22;;
76131;SDS011;64877;50.994;13.650;2023-03-11T08:22:45;9.55;;;5.78;;
76131;SDS011;64877;50.994;13.650;2023-03-11T08:25:11;8.57;;;5.88;;
76131;SDS011;64877;50.994;13.650;2023-03-11T08:27:36;13.07;;;7.35;;
76131;SDS011;64877;50.994;13.650;2023-03-11T08:30:03;12.75;;;6.93;;
76131;SDS011;64877;50.994;13.650;2023-03-11T08:32:29;9.30;;;6.35;;
76131;SDS011;64877;50.994;13.650;2023-03-11T08:34:55;12.35;;;7.32;;
76131;SDS011;64877;50.994;13.650;2023-03-11T08:37:21;10.82;;;6.50;;
76131;SDS011;64877;50.994;13.650;2023-03-11T08:39:47;9.98;;;6.60;;
76131;SDS011;64877;50.994;13.650;2023-03-11T08:42:12;11.13;;;7.43;;
76131;SDS011;64877;50.994;13.650;2023-03-11T08:44:38;12.25;;;6.45;;
76131;SDS011;64877;50.994;13.650;2023-03-11T08:47:03;10.32;;;6.75;;
76131;SDS011;64877;50.994;13.650;2023-03-11T08:49:29;9.13;;;5.93;;
76131;SDS011;64877;50.994;13.650;2023-03-11T08:51:54;9.55;;;6.05;;
76131;SDS011;64877;50.994;13.650;2023-03-11T08:54:20;9.93;;;6.13;;
76131;SDS011;64877;50.994;13.650;2023-03-11T08:56:45;11.15;;;6.18;;
76131;SDS011;64877;50.994;13.650;2023-03-11T08:59:12;8.57;;;5.85;;
76131;SDS011;64877;50.994;13.650;2023-03-11T09:01:38;10.15;;;6.10;;
76131;SDS011;64877;50.994;13.650;2023-03-11T09:04:03;10.65;;;5.78;;
76131;SDS011;64877;50.994;13.650;2023-03-11T09:06:29;11.05;;;7.20;;
76131;SDS011;64877;50.994;13.650;2023-03-11T09:08:54;9.30;;;6.00;;
76131;SDS011;64877;50.994;13.650;2023-03-11T09:11:20;10.93;;;5.72;;
76131;SDS011;64877;50.994;13.650;2023-03-11T09:13:46;9.38;;;5.38;;
76131;SDS011;64877;50.994;13.650;2023-03-11T09:16:16;10.35;;;6.05;;
76131;SDS011;64877;50.994;13.650;2023-03-11T09:18:43;9.02;;;5.65;;
76131;SDS011;64877;50.994;13.650;2023-03-11T09:21:08;8.32;;;5.65;;
76131;SDS011;64877;50.994;13.650;2023-03-11T09:23:34;9.68;;;5.97;;
76131;SDS011;64877;50.994;13.650;2023-03-11T09:25:59;8.82;;;5.85;;
76131;SDS011;64877;50.994;13.650;2023-03-11T09:28:25;9.15;;;6.07;;
76131;SDS011;64877;50.994;13.650;2023-03-11T09:30:50;9.68;;;6.00;;
76131;SDS011;64877;50.994;13.650;2023-03-11T09:33:15;10.55;;;5.63;;
76131;SDS011;64877;50.994;13.650;2023-03-11T09:35:41;9.68;;;6.20;;
76131;SDS011;64877;50.994;13.650;2023-03-11T09:38:06;8.27;;;5.65;;
76131;SDS011;64877;50.994;13.650;2023-03-11T09:40:38;9.10;;;5.82;;
76131;SDS011;64877;50.994;13.650;2023-03-11T09:43:09;7.60;;;4.97;;
76131;SDS011;64877;50.994;13.650;2023-03-11T09:46:18;10.02;;;5.03;;
76131;SDS011;64877;50.994;13.650;2023-03-11T09:48:54;8.02;;;5.40;;
76131;SDS011;64877;50.994;13.650;2023-03-11T09:51:31;8.27;;;6.05;;
76131;SDS011;64877;50.994;13.650;2023-03-11T09:54:08;8.68;;;5.13;;
76131;SDS011;64877;50.994;13.650;2023-03-11T09:56:35;10.38;;;6.00;;
76131;SDS011;64877;50.994;13.650;2023-03-11T09:59:07;13.93;;;6.18;;
76131;SDS011;64877;50.994;13.650;2023-03-11T10:01:41;8.77;;;5.65;;
76131;SDS011;64877;50.994;13.650;2023-03-11T10:07:05;8.30;;;5.60;;
76131;SDS011;64877;50.994;13.650;2023-03-11T10:09:56;9.13;;;5.85;;
76131;SDS011;64877;50.994;13.650;2023-03-11T10:20:20;8.65;;;5.75;;
76131;SDS011;64877;50.994;13.650;2023-03-11T10:28:12;11.30;;;5.53;;
76131;SDS011;64877;50.994;13.650;2023-03-11T10:30:52;10.45;;;6.35;;
76131;SDS011;64877;50.994;13.650;2023-03-11T10:33:23;10.07;;;6.15;;
76131;SDS011;64877;50.994;13.650;2023-03-11T10:35:56;8.70;;;6.38;;
76131;SDS011;64877;50.994;13.650;2023-03-11T10:38:35;10.02;;;5.97;;
76131;SDS011;64877;50.994;13.650;2023-03-11T10:41:09;7.72;;;5.68;;
76131;SDS011;64877;50.994;13.650;2023-03-11T10:43:45;10.52;;;5.95;;
76131;SDS011;64877;50.994;13.650;2023-03-11T10:46:18;12.38;;;6.22;;
76131;SDS011;64877;50.994;13.650;2023-03-11T10:48:52;10.13;;;5.85;;
76131;SDS011;64877;50.994;13.650;2023-03-11T10:51:19;12.30;;;5.85;;
76131;SDS011;64877;50.994;13.650;2023-03-11T10:53:54;8.13;;;5.43;;
76131;SDS011;64877;50.994;13.650;2023-03-11T10:56:25;8.48;;;5.78;;
76131;SDS011;64877;50.994;13.650;2023-03-11T10:58:51;10.13;;;5.68;;
76131;SDS011;64877;50.994;13.650;2023-03-11T11:01:17;9.57;;;6.32;;
76131;SDS011;64877;50.994;13.650;2023-03-11T11:03:44;9.85;;;6.50;;
76131;SDS011;64877;50.994;13.650;2023-03-11T11:06:24;12.60;;;6.60;;
76131;SDS011;64877;50.994;13.650;2023-03-11T11:09:02;9.13;;;5.95;;
76131;SDS011;64877;50.994;13.650;2023-03-11T11:14:40;11.40;;;6.57;;
76131;SDS011;64877;50.994;13.650;2023-03-11T11:17:23;7.68;;;5.20;;
76131;SDS011;64877;50.994;13.650;2023-03-11T11:19:52;8.45;;;5.22;;
76131;SDS011;64877;50.994;13.650;2023-03-11T11:22:20;6.68;;;4.38;;
76131;SDS011;64877;50.994;13.650;2023-03-11T11:24:47;7.60;;;4.63;;
76131;SDS011;64877;50.994;13.650;2023-03-11T11:29:45;7.20;;;4.05;;
76131;SDS011;64877;50.994;13.650;2023-03-11T11:34:37;10.37;;;6.13;;
76131;SDS011;64877;50.994;13.650;2023-03-11T11:37:04;10.05;;;5.28;;
76131;SDS011;64877;50.994;13.650;2023-03-11T11:39:43;7.35;;;4.20;;
76131;SDS011;64877;50.994;13.650;2023-03-11T11:42:22;9.40;;;5.88;;
76131;SDS011;64877;50.994;13.650;2023-03-11T11:44:53;9.48;;;5.40;;
76131;SDS011;64877;50.994;13.650;2023-03-11T11:47:26;7.32;;;4.18;;
76131;SDS011;64877;50.994;13.650;2023-03-11T11:49:58;7.57;;;4.63;;
76131;SDS011;64877;50.994;13.650;2023-03-11T11:52:30;7.50;;;4.13;;
76131;SDS011;64877;50.994;13.650;2023-03-11T11:55:02;6.57;;;4.38;;
76131;SDS011;64877;50.994;13.650;2023-03-11T11:57:31;7.82;;;4.78;;
76131;SDS011;64877;50.994;13.650;2023-03-11T11:59:57;7.53;;;4.45;;
76131;SDS011;64877;50.994;13.650;2023-03-11T12:02:33;7.95;;;4.28;;
76131;SDS011;64877;50.994;13.650;2023-03-11T12:08:11;10.02;;;6.20;;
76131;SDS011;64877;50.994;13.650;2023-03-11T12:10:55;7.78;;;4.50;;
76131;SDS011;64877;50.994;13.650;2023-03-11T12:13:30;5.88;;;3.97;;
76131;SDS011;64877;50.994;13.650;2023-03-11T12:16:22;7.63;;;4.35;;
76131;SDS011;64877;50.994;13.650;2023-03-11T12:19:03;9.13;;;4.13;;
76131;SDS011;64877;50.994;13.650;2023-03-11T12:27:28;7.53;;;3.90;;
76131;SDS011;64877;50.994;13.650;2023-03-11T12:30:02;7.97;;;3.83;;
76131;SDS011;64877;50.994;13.650;2023-03-11T12:32:36;6.45;;;4.40;;
76131;SDS011;64877;50.994;13.650;2023-03-11T12:35:16;8.38;;;4.28;;
76131;SDS011;64877;50.994;13.650;2023-03-11T12:37:54;10.30;;;4.60;;
76131;SDS011;64877;50.994;13.650;2023-03-11T12:43:24;8.25;;;4.55;;
76131;SDS011;64877;50.994;13.650;2023-03-11T12:45:58;7.53;;;4.22;;
76131;SDS011;64877;50.994;13.650;2023-03-11T12:51:02;7.18;;;3.50;;
76131;SDS011;64877;50.994;13.650;2023-03-11T12:53:44;22.48;;;7.63;;
76131;SDS011;64877;50.994;13.650;2023-03-11T12:58:59;7.20;;;4.10;;
76131;SDS011;64877;50.994;13.650;2023-03-11T13:02:11;5.75;;;3.40;;
76131;SDS011;64877;50.994;13.650;2023-03-11T13:13:00;6.68;;;4.13;;
76131;SDS011;64877;50.994;13.650;2023-03-11T13:15:28;6.88;;;4.20;;
76131;SDS011;64877;50.994;13.650;2023-03-11T13:38:50;5.97;;;3.20;;
76131;SDS011;64877;50.994;13.650;2023-03-11T13:41:39;5.78;;;3.00;;
76131;SDS011;64877;50.994;13.650;2023-03-11T13:44:10;7.82;;;3.25;;
76131;SDS011;64877;50.994;13.650;2023-03-11T13:46:43;6.60;;;3.38;;
76131;SDS011;64877;50.994;13.650;2023-03-11T13:49:19;7.30;;;3.53;;
76131;SDS011;64877;50.994;13.650;2023-03-11T13:51:50;4.43;;;2.78;;
76131;SDS011;64877;50.994;13.650;2023-03-11T13:54:24;8.07;;;4.18;;
76131;SDS011;64877;50.994;13.650;2023-03-11T13:57:00;4.50;;;3.05;;
76131;SDS011;64877;50.994;13.650;2023-03-11T13:59:33;5.70;;;3.45;;
76131;SDS011;64877;50.994;13.650;2023-03-11T14:04:34;5.85;;;2.95;;
76131;SDS011;64877;50.994;13.650;2023-03-11T14:12:46;5.43;;;2.75;;
76131;SDS011;64877;50.994;13.650;2023-03-11T14:15:24;5.28;;;2.72;;
76131;SDS011;64877;50.994;13.650;2023-03-11T14:17:51;6.13;;;2.75;;
76131;SDS011;64877;50.994;13.650;2023-03-11T14:20:19;6.05;;;3.20;;
76131;SDS011;64877;50.994;13.650;2023-03-11T14:22:49;5.53;;;2.88;;
76131;SDS011;64877;50.994;13.650;2023-03-11T14:25:18;5.43;;;3.08;;
76131;SDS011;64877;50.994;13.650;2023-03-11T14:27:50;5.18;;;2.65;;
76131;SDS011;64877;50.994;13.650;2023-03-11T14:30:23;5.00;;;3.25;;
76131;SDS011;64877;50.994;13.650;2023-03-11T14:35:21;5.00;;;2.60;;
76131;SDS011;64877;50.994;13.650;2023-03-11T14:37:47;5.85;;;2.95;;
76131;SDS011;64877;50.994;13.650;2023-03-11T14:40:31;8.13;;;3.10;;
76131;SDS011;64877;50.994;13.650;2023-03-11T14:43:02;4.07;;;2.65;;
76131;SDS011;64877;50.994;13.650;2023-03-11T14:45:31;7.57;;;3.33;;
76131;SDS011;64877;50.994;13.650;2023-03-11T14:50:45;5.30;;;2.92;;
76131;SDS011;64877;50.994;13.650;2023-03-11T14:55:40;5.50;;;2.43;;
76131;SDS011;64877;50.994;13.650;2023-03-11T14:58:27;6.85;;;3.30;;
76131;SDS011;64877;50.994;13.650;2023-03-11T15:01:16;5.00;;;2.90;;
76131;SDS011;64877;50.994;13.650;2023-03-11T15:03:48;4.57;;;2.78;;
76131;SDS011;64877;50.994;13.650;2023-03-11T15:06:18;4.97;;;2.80;;
76131;SDS011;64877;50.994;13.650;2023-03-11T15:08:48;4.47;;;2.85;;
76131;SDS011;64877;50.994;13.650;2023-03-11T15:11:18;5.75;;;2.95;;
76131;SDS011;64877;50.994;13.650;2023-03-11T15:13:46;4.70;;;2.90;;
76131;SDS011;64877;50.994;13.650;2023-03-11T15:16:22;6.13;;;3.28;;
76131;SDS011;64877;50.994;13.650;2023-03-11T15:19:00;5.50;;;3.35;;
76131;SDS011;64877;50.994;13.650;2023-03-11T15:21:45;4.63;;;3.10;;
76131;SDS011;64877;50.994;13.650;2023-03-11T15:24:17;6.18;;;3.20;;
76131;SDS011;64877;50.994;13.650;2023-03-11T15:26:51;5.95;;;3.58;;
76131;SDS011;64877;50.994;13.650;2023-03-11T15:29:23;5.40;;;3.20;;
76131;SDS011;64877;50.994;13.650;2023-03-11T15:31:50;6.03;;;2.95;;
76131;SDS011;64877;50.994;13.650;2023-03-11T15:36:53;6.40;;;2.93;;
76131;SDS011;64877;50.994;13.650;2023-03-11T15:42:01;4.97;;;3.03;;
76131;SDS011;64877;50.994;13.650;2023-03-11T15:44:39;6.03;;;3.35;;
76131;SDS011;64877;50.994;13.650;2023-03-11T15:47:14;6.57;;;3.40;;
76131;SDS011;64877;50.994;13.650;2023-03-11T15:49:42;7.35;;;3.60;;
76131;SDS011;64877;50.994;13.650;2023-03-11T15:52:08;5.53;;;3.42;;
76131;SDS011;64877;50.994;13.650;2023-03-11T15:54:34;5.28;;;3.22;;
76131;SDS011;64877;50.994;13.650;2023-03-11T15:57:00;7.40;;;3.20;;
76131;SDS011;64877;50.994;13.650;2023-03-11T15:59:29;8.05;;;3.60;;
76131;SDS011;64877;50.994;13.650;2023-03-11T16:01:54;6.40;;;3.17;;
76131;SDS011;64877;50.994;13.650;2023-03-11T16:04:20;7.45;;;3.58;;
76131;SDS011;64877;50.994;13.650;2023-03-11T16:06:46;5.90;;;3.35;;
76131;SDS011;64877;50.994;13.650;2023-03-11T16:09:13;6.32;;;3.67;;
76131;SDS011;64877;50.994;13.650;2023-03-11T16:11:40;4.40;;;2.88;;
76131;SDS011;64877;50.994;13.650;2023-03-11T16:14:09;6.22;;;3.65;;
76131;SDS011;64877;50.994;13.650;2023-03-11T16:16:42;4.95;;;2.83;;
76131;SDS011;64877;50.994;13.650;2023-03-11T16:19:08;5.80;;;3.08;;